PWSweather.com
Personal Weather Stations
Station Observations
KAZSIERR7
Canyon De Flores, Sierra Vista, AZ 85650

Canyon De FloresSierra Vista, AZ 85650

Lat: 31.5, Lon: -110.26

Elevation: 4645

Station Type: LaCrosse WS-3610 & Boltek Lightning Detector

http://www.lightningring.com/weather/

High Low Average
Temperature 78.1°F25.6°F 48.9°F9.4°F 64.7°F18.2°F
Dew Point 30.9°F-0.6°F 10.6°F-11.9°F 22.9°F-5.1°F
Winds 6.6 mph W10.6 mph W Calm Calm 2.3 mph 3.7 mph
Wind Gusts 25.0 mph40.2 mph -- 6.9 mph11.1 mph
Humidity 43% 8% 23%
Pressure 30.06 in1017.90 in 29.97 in1014.90 in -
Precipitation 0.00 in0.00 in - -
Hour Temp Dew Point Humidity Winds Wind Gusts Pressure Precip Precip Rate Daily Precip Total
12:01 AM 60.3°F15.7°C 25.7°F-3.5°C 27% 3.1 mph NNW5.0 kmh NNW 20.8 mph33.5 kmh 30.05 in1017.6 mb 0.00 in0.0 mm 0.00 in0.0 mm 0.00 in0.0 mm
12:06 AM 60.4°F15.8°C 26.8°F-2.9°C 27% 2.9 mph 4.7 kmh 3.1 mph5.0 kmh 30.05 in1017.6 mb 0.00 in0.0 mm 0.00 in0.0 mm 0.00 in0.0 mm
12:12 AM 60.6°F15.9°C 26.1°F-3.3°C 27% 3.3 mph SSE5.3 kmh SSE 3.5 mph5.6 kmh 30.05 in1017.6 mb 0.00 in0.0 mm 0.00 in0.0 mm 0.00 in0.0 mm
12:17 AM 60.4°F15.8°C 25.9°F-3.4°C 27% 2.9 mph NNW4.7 kmh NNW 3.5 mph5.6 kmh 30.05 in1017.6 mb 0.00 in0.0 mm 0.00 in0.0 mm 0.00 in0.0 mm
12:22 AM 60.4°F15.8°C 25.9°F-3.4°C 28% 2.9 mph NNW4.7 kmh NNW 3.3 mph5.3 kmh 30.05 in1017.6 mb 0.00 in0.0 mm 0.00 in0.0 mm 0.00 in0.0 mm
12:27 AM 59.5°F15.3°C 26.1°F-3.3°C 28% Calm Calm 2.9 mph4.7 kmh 30.05 in1017.6 mb 0.00 in0.0 mm 0.00 in0.0 mm 0.00 in0.0 mm
12:33 AM 59.0°F15.0°C 26.6°F-3.0°C 29% 0.4 mph NNW0.6 kmh NNW 0.4 mph0.6 kmh 30.05 in1017.6 mb 0.00 in0.0 mm 0.00 in0.0 mm 0.00 in0.0 mm
12:38 AM 58.6°F14.8°C 26.2°F-3.2°C 29% Calm Calm 1.5 mph2.4 kmh 30.05 in1017.6 mb 0.00 in0.0 mm 0.00 in0.0 mm 0.00 in0.0 mm
12:43 AM 58.6°F14.8°C 26.2°F-3.2°C 29% Calm Calm 1.5 mph2.4 kmh 30.05 in1017.6 mb 0.00 in0.0 mm 0.00 in0.0 mm 0.00 in0.0 mm
12:48 AM 59.4°F15.2°C 27.0°F-2.8°C 29% Calm Calm 0.6 mph1.0 kmh 30.05 in1017.6 mb 0.00 in0.0 mm 0.00 in0.0 mm 0.00 in0.0 mm
12:54 AM 59.5°F15.3°C 26.1°F-3.3°C 28% 3.1 mph SSW5.0 kmh SSW 3.1 mph5.0 kmh 30.05 in1017.6 mb 0.00 in0.0 mm 0.00 in0.0 mm 0.00 in0.0 mm
12:59 AM 60.1°F15.6°C 26.6°F-3.0°C 28% 0.5 mph NNE0.8 kmh NNE 15.4 mph24.8 kmh 30.05 in1017.6 mb 0.00 in0.0 mm 0.00 in0.0 mm 0.00 in0.0 mm
01:04 AM 59.4°F15.2°C 27.0°F-2.8°C 29% Calm Calm 15.4 mph24.8 kmh 30.05 in1017.6 mb 0.00 in0.0 mm 0.00 in0.0 mm 0.00 in0.0 mm
01:09 AM 59.5°F15.3°C 27.1°F-2.7°C 29% 3.8 mph 6.1 kmh 3.8 mph6.1 kmh 30.06 in1017.9 mb 0.00 in0.0 mm 0.00 in0.0 mm 0.00 in0.0 mm
01:15 AM 59.2°F15.1°C 27.7°F-2.4°C 30% 1.5 mph SSE2.4 kmh SSE 3.8 mph6.1 kmh 30.05 in1017.6 mb 0.00 in0.0 mm 0.00 in0.0 mm 0.00 in0.0 mm
01:20 AM 59.5°F15.3°C 26.1°F-3.3°C 28% Calm Calm 1.5 mph2.4 kmh 30.05 in1017.6 mb 0.00 in0.0 mm 0.00 in0.0 mm 0.00 in0.0 mm
01:26 AM 59.2°F15.1°C 26.8°F-2.9°C 29% Calm Calm -- 30.05 in1017.6 mb 0.00 in0.0 mm 0.00 in0.0 mm 0.00 in0.0 mm
01:31 AM 58.3°F14.6°C 27.0°F-2.8°C 30% Calm Calm -- 30.05 in1017.6 mb 0.00 in0.0 mm 0.00 in0.0 mm 0.00 in0.0 mm
01:36 AM 58.3°F14.6°C 27.0°F-2.8°C 30% Calm Calm -- 30.05 in1017.6 mb 0.00 in0.0 mm 0.00 in0.0 mm 0.00 in0.0 mm
01:41 AM 57.0°F13.9°C 26.6°F-3.0°C 31% Calm Calm -- 30.04 in1017.3 mb 0.00 in0.0 mm 0.00 in0.0 mm 0.00 in0.0 mm
01:46 AM 56.5°F13.6°C 26.1°F-3.3°C 32% Calm Calm -- 30.04 in1017.3 mb 0.00 in0.0 mm 0.00 in0.0 mm 0.00 in0.0 mm
01:52 AM 56.3°F13.5°C 25.9°F-3.4°C 32% Calm Calm -- 30.04 in1017.3 mb 0.00 in0.0 mm 0.00 in0.0 mm 0.00 in0.0 mm
01:57 AM 55.9°F13.3°C 26.2°F-3.2°C 32% Calm Calm -- 30.04 in1017.3 mb 0.00 in0.0 mm 0.00 in0.0 mm 0.00 in0.0 mm
02:02 AM 55.6°F13.1°C 26.6°F-3.0°C 33% Calm Calm -- 30.04 in1017.3 mb 0.00 in0.0 mm 0.00 in0.0 mm 0.00 in0.0 mm
02:07 AM 56.1°F13.4°C 26.4°F-3.1°C 32% Calm Calm -- 30.04 in1017.3 mb 0.00 in0.0 mm 0.00 in0.0 mm 0.00 in0.0 mm
02:13 AM 55.6°F13.1°C 26.6°F-3.0°C 33% Calm Calm -- 30.03 in1016.9 mb 0.00 in0.0 mm 0.00 in0.0 mm 0.00 in0.0 mm
02:18 AM 56.3°F13.5°C 26.6°F-3.0°C 32% Calm Calm -- 30.03 in1016.9 mb 0.00 in0.0 mm 0.00 in0.0 mm 0.00 in0.0 mm
02:23 AM 56.5°F13.6°C 26.8°F-2.9°C 32% Calm Calm -- 30.03 in1016.9 mb 0.00 in0.0 mm 0.00 in0.0 mm 0.00 in0.0 mm
02:28 AM 56.1°F13.4°C 27.1°F-2.7°C 33% 1.5 mph NNW2.4 kmh NNW 1.5 mph2.4 kmh 30.03 in1016.9 mb 0.00 in0.0 mm 0.00 in0.0 mm 0.00 in0.0 mm
02:34 AM 56.5°F13.6°C 27.5°F-2.5°C 33% 2.9 mph NW4.7 kmh NW 2.9 mph4.7 kmh 30.03 in1016.9 mb 0.00 in0.0 mm 0.00 in0.0 mm 0.00 in0.0 mm
02:39 AM 55.9°F13.3°C 27.7°F-2.4°C 34% 1.1 mph 1.8 kmh 2.9 mph4.7 kmh 30.03 in1016.9 mb 0.00 in0.0 mm 0.00 in0.0 mm 0.00 in0.0 mm
02:44 AM 55.9°F13.3°C 28.4°F-2.0°C 35% 4.0 mph NW6.4 kmh NW 4.0 mph6.4 kmh 30.03 in1016.9 mb 0.00 in0.0 mm 0.00 in0.0 mm 0.00 in0.0 mm
02:49 AM 55.9°F13.3°C 28.4°F-2.0°C 35% 2.6 mph 4.2 kmh 4.0 mph6.4 kmh 30.03 in1016.9 mb 0.00 in0.0 mm 0.00 in0.0 mm 0.00 in0.0 mm
02:55 AM 57.0°F13.9°C 28.6°F-1.9°C 34% 5.6 mph NNE9.0 kmh NNE 10.0 mph16.1 kmh 30.02 in1016.6 mb 0.00 in0.0 mm 0.00 in0.0 mm 0.00 in0.0 mm
03:00 AM 57.6°F14.2°C 29.1°F-1.6°C 32% 1.1 mph NNE1.8 kmh NNE 17.4 mph28.0 kmh 30.02 in1016.6 mb 0.00 in0.0 mm 0.00 in0.0 mm 0.00 in0.0 mm
03:06 AM 56.5°F13.6°C 28.2°F-2.1°C 34% 3.3 mph NW5.3 kmh NW 17.4 mph28.0 kmh 30.03 in1016.9 mb 0.00 in0.0 mm 0.00 in0.0 mm 0.00 in0.0 mm
03:11 AM 56.1°F13.4°C 28.6°F-1.9°C 35% Calm Calm 3.3 mph5.3 kmh 30.03 in1016.9 mb 0.00 in0.0 mm 0.00 in0.0 mm 0.00 in0.0 mm
03:16 AM 55.8°F13.2°C 28.2°F-2.1°C 35% Calm Calm -- 30.03 in1016.9 mb 0.00 in0.0 mm 0.00 in0.0 mm 0.00 in0.0 mm
03:21 AM 54.5°F12.5°C 28.4°F-2.0°C 37% Calm Calm -- 30.04 in1017.3 mb 0.00 in0.0 mm 0.00 in0.0 mm 0.00 in0.0 mm
03:27 AM 54.1°F12.3°C 28.9°F-1.7°C 38% 4.9 mph WNW7.9 kmh WNW 4.9 mph7.9 kmh 30.04 in1017.3 mb 0.00 in0.0 mm 0.00 in0.0 mm 0.00 in0.0 mm
03:32 AM 54.5°F12.5°C 28.4°F-2.0°C 37% 2.9 mph NW4.7 kmh NW 4.9 mph7.9 kmh 30.04 in1017.3 mb 0.00 in0.0 mm 0.00 in0.0 mm 0.00 in0.0 mm
03:37 AM 54.7°F12.6°C 28.6°F-1.9°C 37% 1.6 mph N2.6 kmh N 4.9 mph7.9 kmh 30.04 in1017.3 mb 0.00 in0.0 mm 0.00 in0.0 mm 0.00 in0.0 mm
03:42 AM 54.5°F12.5°C 28.4°F-2.0°C 37% 2.7 mph N4.3 kmh N 8.0 mph12.9 kmh 30.04 in1017.3 mb 0.00 in0.0 mm 0.00 in0.0 mm 0.00 in0.0 mm
03:47 AM 54.5°F12.5°C 28.4°F-2.0°C 37% 3.8 mph NNW6.1 kmh NNW 8.0 mph12.9 kmh 30.03 in1016.9 mb 0.00 in0.0 mm 0.00 in0.0 mm 0.00 in0.0 mm
03:53 AM 54.1°F12.3°C 28.2°F-2.1°C 37% 4.4 mph NNW7.1 kmh NNW 4.4 mph7.1 kmh 30.03 in1016.9 mb 0.00 in0.0 mm 0.00 in0.0 mm 0.00 in0.0 mm
03:58 AM 53.4°F11.9°C 28.2°F-2.1°C 38% 1.4 mph NNW2.3 kmh NNW 14.9 mph24.0 kmh 30.03 in1016.9 mb 0.00 in0.0 mm 0.00 in0.0 mm 0.00 in0.0 mm
04:03 AM 53.4°F11.9°C 27.5°F-2.5°C 37% 2.9 mph NNE4.7 kmh NNE 14.9 mph24.0 kmh 30.03 in1016.9 mb 0.00 in0.0 mm 0.00 in0.0 mm 0.00 in0.0 mm
04:09 AM 53.2°F11.8°C 28.0°F-2.2°C 38% 3.1 mph WNW5.0 kmh WNW 3.5 mph5.6 kmh 30.03 in1016.9 mb 0.00 in0.0 mm 0.00 in0.0 mm 0.00 in0.0 mm
04:14 AM 52.9°F11.6°C 27.7°F-2.4°C 38% Calm Calm 3.3 mph5.3 kmh 30.03 in1016.9 mb 0.00 in0.0 mm 0.00 in0.0 mm 0.00 in0.0 mm
04:19 AM 52.7°F11.5°C 27.5°F-2.5°C 38% 4.5 mph ESE7.2 kmh ESE 4.6 mph7.4 kmh 30.03 in1016.9 mb 0.00 in0.0 mm 0.00 in0.0 mm 0.00 in0.0 mm
04:25 AM 52.5°F11.4°C 28.0°F-2.2°C 39% 1.1 mph ESE1.8 kmh ESE 4.6 mph7.4 kmh 30.03 in1016.9 mb 0.00 in0.0 mm 0.00 in0.0 mm 0.00 in0.0 mm
04:30 AM 52.5°F11.4°C 28.0°F-2.2°C 38% Calm Calm 3.5 mph5.6 kmh 30.04 in1017.3 mb 0.00 in0.0 mm 0.00 in0.0 mm 0.00 in0.0 mm
04:35 AM 52.3°F11.3°C 27.3°F-2.6°C 38% Calm Calm -- 30.03 in1016.9 mb 0.00 in0.0 mm 0.00 in0.0 mm 0.00 in0.0 mm
04:40 AM 52.2°F11.2°C 27.9°F-2.3°C 39% Calm Calm -- 30.03 in1016.9 mb 0.00 in0.0 mm 0.00 in0.0 mm 0.00 in0.0 mm
04:46 AM 52.5°F11.4°C 28.0°F-2.2°C 39% 1.7 mph NNE2.7 kmh NNE 1.7 mph2.7 kmh 30.02 in1016.6 mb 0.00 in0.0 mm 0.00 in0.0 mm 0.00 in0.0 mm
04:51 AM 52.2°F11.2°C 27.9°F-2.3°C 39% Calm Calm 1.7 mph2.7 kmh 30.03 in1016.9 mb 0.00 in0.0 mm 0.00 in0.0 mm 0.00 in0.0 mm
04:56 AM 51.4°F10.8°C 27.9°F-2.3°C 40% 2.6 mph S4.2 kmh S 2.6 mph4.2 kmh 30.03 in1016.9 mb 0.00 in0.0 mm 0.00 in0.0 mm 0.00 in0.0 mm
05:01 AM 50.7°F10.4°C 27.7°F-2.4°C 41% 2.4 mph ENE3.9 kmh ENE 2.6 mph4.2 kmh 30.03 in1016.9 mb 0.00 in0.0 mm 0.00 in0.0 mm 0.00 in0.0 mm
05:07 AM 51.1°F10.6°C 28.0°F-2.2°C 40% 3.3 mph NE5.3 kmh NE 3.3 mph5.3 kmh 30.03 in1016.9 mb 0.00 in0.0 mm 0.00 in0.0 mm 0.00 in0.0 mm
05:12 AM 51.1°F10.6°C 28.0°F-2.2°C 39% 1.5 mph NE2.4 kmh NE 3.3 mph5.3 kmh 30.04 in1017.3 mb 0.00 in0.0 mm 0.00 in0.0 mm 0.00 in0.0 mm
05:17 AM 50.7°F10.4°C 26.4°F-3.1°C 39% Calm Calm 2.2 mph3.5 kmh 30.03 in1016.9 mb 0.00 in0.0 mm 0.00 in0.0 mm 0.00 in0.0 mm
05:22 AM 49.3°F9.6°C 25.9°F-3.4°C 40% Calm Calm -- 30.04 in1017.3 mb 0.00 in0.0 mm 0.00 in0.0 mm 0.00 in0.0 mm
05:28 AM 49.1°F9.5°C 26.2°F-3.2°C 41% 1.3 mph NE2.1 kmh NE 1.3 mph2.1 kmh 30.04 in1017.3 mb 0.00 in0.0 mm 0.00 in0.0 mm 0.00 in0.0 mm
05:33 AM 49.3°F9.6°C 25.9°F-3.4°C 40% Calm Calm 1.3 mph2.1 kmh 30.04 in1017.3 mb 0.00 in0.0 mm 0.00 in0.0 mm 0.00 in0.0 mm
05:39 AM 49.6°F9.8°C 26.2°F-3.2°C 40% Calm Calm -- 30.04 in1017.3 mb 0.00 in0.0 mm 0.00 in0.0 mm 0.00 in0.0 mm
05:44 AM 48.9°F9.4°C 27.1°F-2.7°C 43% 0.6 mph W1.0 kmh W 0.6 mph1.0 kmh 30.05 in1017.6 mb 0.00 in0.0 mm 0.00 in0.0 mm 0.00 in0.0 mm
05:49 AM 49.1°F9.5°C 27.3°F-2.6°C 43% Calm Calm 0.6 mph1.0 kmh 30.04 in1017.3 mb 0.00 in0.0 mm 0.00 in0.0 mm 0.00 in0.0 mm
05:54 AM 50.5°F10.3°C 27.5°F-2.5°C 41% Calm Calm -- 30.04 in1017.3 mb 0.00 in0.0 mm 0.00 in0.0 mm 0.00 in0.0 mm
06:00 AM 51.8°F11.0°C 28.2°F-2.1°C 40% Calm Calm -- 30.04 in1017.3 mb 0.00 in0.0 mm 0.00 in0.0 mm 0.00 in0.0 mm
06:05 AM 52.0°F11.1°C 28.2°F-2.1°C 40% 3.1 mph S5.0 kmh S 3.1 mph5.0 kmh 30.05 in1017.6 mb 0.00 in0.0 mm 0.00 in0.0 mm 0.00 in0.0 mm
06:10 AM 52.9°F11.6°C 28.4°F-2.0°C 39% Calm Calm 3.1 mph5.0 kmh 30.04 in1017.3 mb 0.00 in0.0 mm 0.00 in0.0 mm 0.00 in0.0 mm
06:15 AM 53.6°F12.0°C 28.4°F-2.0°C 38% Calm Calm -- 30.05 in1017.6 mb 0.00 in0.0 mm 0.00 in0.0 mm 0.00 in0.0 mm
06:21 AM 54.0°F12.2°C 28.8°F-1.8°C 38% Calm Calm -- 30.05 in1017.6 mb 0.00 in0.0 mm 0.00 in0.0 mm 0.00 in0.0 mm
06:26 AM 54.7°F12.6°C 29.3°F-1.5°C 38% Calm Calm -- 30.05 in1017.6 mb 0.00 in0.0 mm 0.00 in0.0 mm 0.00 in0.0 mm
06:31 AM 56.5°F13.6°C 30.2°F-1.0°C 37% Calm Calm -- 30.05 in1017.6 mb 0.00 in0.0 mm 0.00 in0.0 mm 0.00 in0.0 mm
06:36 AM 57.7°F14.3°C 30.0°F-1.1°C 35% Calm Calm -- 30.05 in1017.6 mb 0.00 in0.0 mm 0.00 in0.0 mm 0.00 in0.0 mm
06:42 AM 57.6°F14.2°C 29.1°F-1.6°C 34% Calm Calm -- 30.05 in1017.6 mb 0.00 in0.0 mm 0.00 in0.0 mm 0.00 in0.0 mm
06:47 AM 56.5°F13.6°C 28.2°F-2.1°C 34% Calm Calm -- 30.05 in1017.6 mb 0.00 in0.0 mm 0.00 in0.0 mm 0.00 in0.0 mm
06:52 AM 57.7°F14.3°C 30.0°F-1.1°C 35% Calm Calm -- 30.05 in1017.6 mb 0.00 in0.0 mm 0.00 in0.0 mm 0.00 in0.0 mm
06:57 AM 60.1°F15.6°C 29.8°F-1.2°C 32% Calm Calm -- 30.05 in1017.6 mb 0.00 in0.0 mm 0.00 in0.0 mm 0.00 in0.0 mm
07:02 AM 61.3°F16.3°C 30.9°F-0.6°C 32% Calm Calm -- 30.06 in1017.9 mb 0.00 in0.0 mm 0.00 in0.0 mm 0.00 in0.0 mm
07:08 AM 60.1°F15.6°C 27.5°F-2.5°C 29% Calm Calm -- 30.06 in1017.9 mb 0.00 in0.0 mm 0.00 in0.0 mm 0.00 in0.0 mm
07:13 AM 59.9°F15.5°C 28.4°F-2.0°C 30% Calm Calm -- 30.06 in1017.9 mb 0.00 in0.0 mm 0.00 in0.0 mm 0.00 in0.0 mm
07:18 AM 61.5°F16.4°C 27.7°F-2.4°C 28% Calm Calm -- 30.05 in1017.6 mb 0.00 in0.0 mm 0.00 in0.0 mm 0.00 in0.0 mm
07:23 AM 61.9°F16.6°C 28.0°F-2.2°C 28% 2.1 mph NNE3.4 kmh NNE 2.9 mph4.7 kmh 30.05 in1017.6 mb 0.00 in0.0 mm 0.00 in0.0 mm 0.00 in0.0 mm
07:29 AM 61.2°F16.2°C 27.5°F-2.5°C 28% Calm Calm 2.9 mph4.7 kmh 30.05 in1017.6 mb 0.00 in0.0 mm 0.00 in0.0 mm 0.00 in0.0 mm
07:34 AM 59.5°F15.3°C 27.8°F-2.3°C 30% 2.5 mph NNE4.0 kmh NNE 3.5 mph5.6 kmh 30.05 in1017.6 mb 0.00 in0.0 mm 0.00 in0.0 mm 0.00 in0.0 mm
07:39 AM 58.7°F14.8°C 27.1°F-2.7°C 30% 3.1 mph ENE5.0 kmh ENE 3.5 mph5.6 kmh 30.05 in1017.6 mb 0.00 in0.0 mm 0.00 in0.0 mm 0.00 in0.0 mm
07:46 AM 58.9°F14.9°C 27.3°F-2.6°C 30% 4.0 mph NE6.4 kmh NE 4.0 mph6.4 kmh 30.05 in1017.6 mb 0.00 in0.0 mm 0.00 in0.0 mm 0.00 in0.0 mm
07:51 AM 58.9°F14.9°C 27.3°F-2.6°C 30% 1.3 mph ENE2.1 kmh ENE 4.0 mph6.4 kmh 30.05 in1017.6 mb 0.00 in0.0 mm 0.00 in0.0 mm 0.00 in0.0 mm
07:56 AM 59.4°F15.2°C 26.9°F-2.8°C 29% 1.0 mph E1.6 kmh E 4.0 mph6.4 kmh 30.05 in1017.6 mb 0.00 in0.0 mm 0.00 in0.0 mm 0.00 in0.0 mm
08:02 AM 59.8°F15.4°C 26.5°F-3.1°C 28% Calm Calm 4.0 mph6.4 kmh 30.05 in1017.6 mb 0.00 in0.0 mm 0.00 in0.0 mm 0.00 in0.0 mm
08:07 AM 59.9°F15.5°C 26.5°F-3.1°C 28% 3.1 mph NE5.0 kmh NE 15.2 mph24.5 kmh 30.05 in1017.6 mb 0.00 in0.0 mm 0.00 in0.0 mm 0.00 in0.0 mm
08:12 AM 60.4°F15.8°C 26.9°F-2.8°C 28% 3.2 mph E5.1 kmh E 15.8 mph25.4 kmh 30.05 in1017.6 mb 0.00 in0.0 mm 0.00 in0.0 mm 0.00 in0.0 mm
08:17 AM 63.6°F17.6°C 27.9°F-2.3°C 26% Calm Calm 10.5 mph16.9 kmh 30.06 in1017.9 mb 0.00 in0.0 mm 0.00 in0.0 mm 0.00 in0.0 mm
08:23 AM 63.9°F17.7°C 28.1°F-2.2°C 26% 2.6 mph E4.2 kmh E 8.0 mph12.9 kmh 30.06 in1017.9 mb 0.00 in0.0 mm 0.00 in0.0 mm 0.00 in0.0 mm
08:28 AM 63.1°F17.3°C 26.5°F-3.1°C 25% 4.4 mph ESE7.1 kmh ESE 8.0 mph12.9 kmh 30.05 in1017.6 mb 0.00 in0.0 mm 0.00 in0.0 mm 0.00 in0.0 mm
08:33 AM 64.6°F18.1°C 27.8°F-2.3°C 25% Calm Calm 4.4 mph7.1 kmh 30.04 in1017.3 mb 0.00 in0.0 mm 0.00 in0.0 mm 0.00 in0.0 mm
08:38 AM 64.5°F18.1°C 26.8°F-2.9°C 24% 1.1 mph E1.8 kmh E 4.4 mph7.1 kmh 30.05 in1017.6 mb 0.00 in0.0 mm 0.00 in0.0 mm 0.00 in0.0 mm
08:44 AM 65.9°F18.8°C 28.0°F-2.2°C 24% 2.7 mph E4.3 kmh E 4.0 mph6.4 kmh 30.04 in1017.3 mb 0.00 in0.0 mm 0.00 in0.0 mm 0.00 in0.0 mm
08:49 AM 65.5°F18.6°C 26.6°F-3.0°C 23% 4.4 mph NE7.1 kmh NE 10.5 mph16.9 kmh 30.04 in1017.3 mb 0.00 in0.0 mm 0.00 in0.0 mm 0.00 in0.0 mm
08:55 AM 65.5°F18.6°C 27.7°F-2.4°C 24% 1.3 mph NE2.1 kmh NE 24.8 mph39.9 kmh 30.04 in1017.3 mb 0.00 in0.0 mm 0.00 in0.0 mm 0.00 in0.0 mm
09:00 AM 67.3°F19.6°C 28.1°F-2.2°C 23% 2.6 mph NE4.2 kmh NE 24.8 mph39.9 kmh 30.04 in1017.3 mb 0.00 in0.0 mm 0.00 in0.0 mm 0.00 in0.0 mm
09:05 AM 67.9°F19.9°C 27.5°F-2.5°C 22% 2.0 mph NNE3.2 kmh NNE 3.3 mph5.3 kmh 30.04 in1017.3 mb 0.00 in0.0 mm 0.00 in0.0 mm 0.00 in0.0 mm
09:10 AM 70.2°F21.2°C 28.4°F-2.0°C 21% Calm Calm 2.4 mph3.9 kmh 30.04 in1017.3 mb 0.00 in0.0 mm 0.00 in0.0 mm 0.00 in0.0 mm
09:16 AM 71.7°F22.1°C 28.4°F-2.0°C 20% Calm Calm -- 30.04 in1017.3 mb 0.00 in0.0 mm 0.00 in0.0 mm 0.00 in0.0 mm
09:21 AM 71.9°F22.2°C 27.4°F-2.6°C 19% Calm Calm -- 30.04 in1017.3 mb 0.00 in0.0 mm 0.00 in0.0 mm 0.00 in0.0 mm
09:26 AM 72.0°F22.2°C 26.1°F-3.3°C 18% Calm Calm -- 30.04 in1017.3 mb 0.00 in0.0 mm 0.00 in0.0 mm 0.00 in0.0 mm
09:31 AM 69.2°F20.7°C 25.1°F-3.8°C 19% 2.2 mph ESE3.5 kmh ESE 2.2 mph3.5 kmh 30.04 in1017.3 mb 0.00 in0.0 mm 0.00 in0.0 mm 0.00 in0.0 mm
09:37 AM 68.1°F20.1°C 25.5°F-3.6°C 20% 5.1 mph NNE8.2 kmh NNE 9.1 mph14.6 kmh 30.04 in1017.3 mb 0.00 in0.0 mm 0.00 in0.0 mm 0.00 in0.0 mm
09:42 AM 67.8°F19.9°C 25.2°F-3.8°C 20% 2.2 mph E3.5 kmh E 5.1 mph8.2 kmh 30.03 in1016.9 mb 0.00 in0.0 mm 0.00 in0.0 mm 0.00 in0.0 mm
09:48 AM 70.8°F21.6°C 26.4°F-3.1°C 19% Calm Calm 4.6 mph7.4 kmh 30.03 in1016.9 mb 0.00 in0.0 mm 0.00 in0.0 mm 0.00 in0.0 mm
09:54 AM 68.6°F20.3°C 24.6°F-4.1°C 19% 4.3 mph ENE6.9 kmh ENE 4.4 mph7.1 kmh 30.03 in1016.9 mb 0.00 in0.0 mm 0.00 in0.0 mm 0.00 in0.0 mm
09:59 AM 69.0°F20.6°C 25.0°F-3.9°C 19% 4.7 mph NE7.6 kmh NE 7.1 mph11.4 kmh 30.04 in1017.3 mb 0.00 in0.0 mm 0.00 in0.0 mm 0.00 in0.0 mm
10:04 AM 68.0°F20.0°C 24.1°F-4.4°C 19% 4.6 mph ENE7.4 kmh ENE 13.6 mph21.9 kmh 30.03 in1016.9 mb 0.00 in0.0 mm 0.00 in0.0 mm 0.00 in0.0 mm
10:09 AM 69.8°F21.0°C 24.4°F-4.2°C 18% 2.2 mph ESE3.5 kmh ESE 13.6 mph21.9 kmh 30.03 in1016.9 mb 0.00 in0.0 mm 0.00 in0.0 mm 0.00 in0.0 mm
10:15 AM 69.0°F20.6°C 25.0°F-3.9°C 19% 3.2 mph NE5.1 kmh NE 3.8 mph6.1 kmh 30.03 in1016.9 mb 0.00 in0.0 mm 0.00 in0.0 mm 0.00 in0.0 mm
10:20 AM 68.9°F20.5°C 23.6°F-4.7°C 18% 2.7 mph NE4.3 kmh NE 3.8 mph6.1 kmh 30.03 in1016.9 mb 0.00 in0.0 mm 0.00 in0.0 mm 0.00 in0.0 mm
10:25 AM 69.1°F20.6°C 23.7°F-4.6°C 18% 4.0 mph E6.4 kmh E 4.0 mph6.4 kmh 30.03 in1016.9 mb 0.00 in0.0 mm 0.00 in0.0 mm 0.00 in0.0 mm
10:30 AM 67.8°F19.9°C 22.7°F-5.2°C 18% 3.3 mph E5.3 kmh E 5.3 mph8.5 kmh 30.03 in1016.9 mb 0.00 in0.0 mm 0.00 in0.0 mm 0.00 in0.0 mm
10:36 AM 68.8°F20.4°C 23.5°F-4.7°C 18% Calm Calm 5.3 mph8.5 kmh 30.03 in1016.9 mb 0.00 in0.0 mm 0.00 in0.0 mm 0.00 in0.0 mm
10:41 AM 72.0°F22.2°C 24.8°F-4.0°C 17% 2.2 mph SSE3.5 kmh SSE 2.2 mph3.5 kmh 30.03 in1016.9 mb 0.00 in0.0 mm 0.00 in0.0 mm 0.00 in0.0 mm
10:47 AM 71.5°F21.9°C 22.9°F-5.1°C 16% 3.7 mph ENE6.0 kmh ENE 7.3 mph11.7 kmh 30.03 in1016.9 mb 0.00 in0.0 mm 0.00 in0.0 mm 0.00 in0.0 mm
10:52 AM 69.6°F20.9°C 21.4°F-5.9°C 16% 5.2 mph NE8.4 kmh NE 10.5 mph16.9 kmh 30.03 in1016.9 mb 0.00 in0.0 mm 0.00 in0.0 mm 0.00 in0.0 mm
10:57 AM 69.2°F20.7°C 21.0°F-6.1°C 16% 3.8 mph ENE6.1 kmh ENE 10.5 mph16.9 kmh 30.03 in1016.9 mb 0.00 in0.0 mm 0.00 in0.0 mm 0.00 in0.0 mm
11:02 AM 69.4°F20.8°C 21.2°F-6.0°C 16% 3.7 mph ENE6.0 kmh ENE 8.5 mph13.7 kmh 30.03 in1016.9 mb 0.00 in0.0 mm 0.00 in0.0 mm 0.00 in0.0 mm
11:08 AM 71.5°F21.9°C 24.4°F-4.2°C 17% 1.3 mph E2.1 kmh E 5.1 mph8.2 kmh 30.02 in1016.6 mb 0.00 in0.0 mm 0.00 in0.0 mm 0.00 in0.0 mm
11:13 AM 73.2°F22.9°C 21.1°F-6.1°C 14% 0.2 mph S0.3 kmh S 3.3 mph5.3 kmh 30.02 in1016.6 mb 0.00 in0.0 mm 0.00 in0.0 mm 0.00 in0.0 mm
11:18 AM 72.2°F22.3°C 16.6°F-8.6°C 12% 3.3 mph WSW5.3 kmh WSW 8.2 mph13.2 kmh 30.02 in1016.6 mb 0.00 in0.0 mm 0.00 in0.0 mm 0.00 in0.0 mm
11:23 AM 73.1°F22.8°C 17.2°F-8.2°C 12% 4.2 mph NW6.8 kmh NW 8.2 mph13.2 kmh 30.02 in1016.6 mb 0.00 in0.0 mm 0.00 in0.0 mm 0.00 in0.0 mm
11:29 AM 72.3°F22.4°C 16.6°F-8.6°C 12% 3.8 mph W6.1 kmh W 12.7 mph20.4 kmh 30.02 in1016.6 mb 0.00 in0.0 mm 0.00 in0.0 mm 0.00 in0.0 mm
11:34 AM 72.9°F22.7°C 17.1°F-8.3°C 12% 4.2 mph SW6.8 kmh SW 13.1 mph21.1 kmh 30.02 in1016.6 mb 0.00 in0.0 mm 0.00 in0.0 mm 0.00 in0.0 mm
11:39 AM 72.6°F22.6°C 16.9°F-8.4°C 12% 5.0 mph WSW8.0 kmh WSW 13.1 mph21.1 kmh 30.02 in1016.6 mb 0.00 in0.0 mm 0.00 in0.0 mm 0.00 in0.0 mm
11:44 AM 72.4°F22.4°C 16.7°F-8.5°C 12% 1.3 mph WSW2.1 kmh WSW 7.6 mph12.2 kmh 30.02 in1016.6 mb 0.00 in0.0 mm 0.00 in0.0 mm 0.00 in0.0 mm
11:50 AM 73.0°F22.8°C 15.1°F-9.4°C 11% 3.2 mph WSW5.1 kmh WSW 4.6 mph7.4 kmh 30.02 in1016.6 mb 0.00 in0.0 mm 0.00 in0.0 mm 0.00 in0.0 mm
11:55 AM 72.7°F22.6°C 16.9°F-8.4°C 12% 2.0 mph W3.2 kmh W 4.6 mph7.4 kmh 30.02 in1016.6 mb 0.00 in0.0 mm 0.00 in0.0 mm 0.00 in0.0 mm
12:00 PM 73.8°F23.2°C 21.5°F-5.8°C 14% 3.8 mph SW6.1 kmh SW 10.9 mph17.5 kmh 30.02 in1016.6 mb 0.00 in0.0 mm 0.00 in0.0 mm 0.00 in0.0 mm
12:06 PM 73.6°F23.1°C 21.4°F-5.9°C 14% 3.7 mph SW6.0 kmh SW 10.9 mph17.5 kmh 30.02 in1016.6 mb 0.00 in0.0 mm 0.00 in0.0 mm 0.00 in0.0 mm
12:11 PM 73.6°F23.1°C 17.7°F-7.9°C 12% 2.8 mph W4.5 kmh W 4.0 mph6.4 kmh 30.02 in1016.6 mb 0.00 in0.0 mm 0.00 in0.0 mm 0.00 in0.0 mm
12:16 PM 73.0°F22.8°C 19.1°F-7.2°C 13% Calm Calm 10.9 mph17.5 kmh 30.02 in1016.6 mb 0.00 in0.0 mm 0.00 in0.0 mm 0.00 in0.0 mm
12:21 PM 74.2°F23.4°C 16.1°F-8.8°C 11% 3.0 mph WSW4.8 kmh WSW 10.9 mph17.5 kmh 30.01 in1016.3 mb 0.00 in0.0 mm 0.00 in0.0 mm 0.00 in0.0 mm
12:27 PM 73.3°F22.9°C 13.1°F-10.5°C 10% 4.1 mph WSW6.6 kmh WSW 8.7 mph14.0 kmh 30.01 in1016.3 mb 0.00 in0.0 mm 0.00 in0.0 mm 0.00 in0.0 mm
12:32 PM 72.7°F22.6°C 14.9°F-9.5°C 11% 4.0 mph SW6.4 kmh SW 8.2 mph13.2 kmh 30.01 in1016.3 mb 0.00 in0.0 mm 0.00 in0.0 mm 0.00 in0.0 mm
12:37 PM 73.4°F23.0°C 13.2°F-10.4°C 10% 4.4 mph WSW7.1 kmh WSW 14.5 mph23.3 kmh 30.01 in1016.3 mb 0.00 in0.0 mm 0.00 in0.0 mm 0.00 in0.0 mm
12:42 PM 73.2°F22.9°C 15.3°F-9.3°C 11% 4.0 mph WSW6.4 kmh WSW 14.5 mph23.3 kmh 30.01 in1016.3 mb 0.00 in0.0 mm 0.00 in0.0 mm 0.00 in0.0 mm
12:48 PM 73.5°F23.1°C 13.3°F-10.4°C 10% 4.5 mph WSW7.2 kmh WSW 9.6 mph15.4 kmh 30.01 in1016.3 mb 0.00 in0.0 mm 0.00 in0.0 mm 0.00 in0.0 mm
12:53 PM 73.4°F23.0°C 15.4°F-9.2°C 11% 5.8 mph WSW9.3 kmh WSW 10.0 mph16.1 kmh 30.00 in1015.9 mb 0.00 in0.0 mm 0.00 in0.0 mm 0.00 in0.0 mm
12:58 PM 73.4°F23.0°C 15.4°F-9.2°C 11% 2.9 mph SW4.7 kmh SW 14.5 mph23.3 kmh 30.00 in1015.9 mb 0.00 in0.0 mm 0.00 in0.0 mm 0.00 in0.0 mm
01:03 PM 73.5°F23.1°C 10.9°F-11.7°C 9% 5.4 mph WSW8.7 kmh WSW 14.5 mph23.3 kmh 30.01 in1016.3 mb 0.00 in0.0 mm 0.00 in0.0 mm 0.00 in0.0 mm
01:09 PM 73.7°F23.2°C 15.7°F-9.1°C 11% 4.1 mph WSW6.6 kmh WSW 11.8 mph19.0 kmh 30.00 in1015.9 mb 0.00 in0.0 mm 0.00 in0.0 mm 0.00 in0.0 mm
01:14 PM 74.3°F23.5°C 11.5°F-11.4°C 9% 4.3 mph WSW6.9 kmh WSW 13.4 mph21.6 kmh 30.00 in1015.9 mb 0.00 in0.0 mm 0.00 in0.0 mm 0.00 in0.0 mm
01:19 PM 73.5°F23.1°C 10.9°F-11.7°C 9% 5.0 mph WSW8.0 kmh WSW 13.4 mph21.6 kmh 30.00 in1015.9 mb 0.00 in0.0 mm 0.00 in0.0 mm 0.00 in0.0 mm
01:24 PM 73.8°F23.2°C 11.0°F-11.7°C 9% 4.7 mph WSW7.6 kmh WSW 12.5 mph20.1 kmh 30.00 in1015.9 mb 0.00 in0.0 mm 0.00 in0.0 mm 0.00 in0.0 mm
01:29 PM 74.5°F23.6°C 11.6°F-11.3°C 9% 5.1 mph WSW8.2 kmh WSW 13.1 mph21.1 kmh 29.99 in1015.6 mb 0.00 in0.0 mm 0.00 in0.0 mm 0.00 in0.0 mm
01:35 PM 73.8°F23.2°C 13.5°F-10.3°C 10% 4.9 mph WSW7.9 kmh WSW 13.1 mph21.1 kmh 30.00 in1015.9 mb 0.00 in0.0 mm 0.00 in0.0 mm 0.00 in0.0 mm
01:40 PM 74.5°F23.6°C 14.1°F-9.9°C 10% 5.5 mph SW8.9 kmh SW 12.3 mph19.8 kmh 30.00 in1015.9 mb 0.00 in0.0 mm 0.00 in0.0 mm 0.00 in0.0 mm
01:45 PM 75.7°F24.3°C 12.5°F-10.8°C 9% 2.0 mph WSW3.2 kmh WSW 11.1 mph17.9 kmh 29.99 in1015.6 mb 0.00 in0.0 mm 0.00 in0.0 mm 0.00 in0.0 mm
01:50 PM 74.8°F23.8°C 11.8°F-11.2°C 9% 3.7 mph SW6.0 kmh SW 3.8 mph6.1 kmh 29.99 in1015.6 mb 0.00 in0.0 mm 0.00 in0.0 mm 0.00 in0.0 mm
01:56 PM 75.5°F24.2°C 14.8°F-9.6°C 10% 2.9 mph WSW4.7 kmh WSW 8.7 mph14.0 kmh 29.99 in1015.6 mb 0.00 in0.0 mm 0.00 in0.0 mm 0.00 in0.0 mm
02:01 PM 74.6°F23.7°C 11.7°F-11.3°C 9% 6.6 mph W10.6 kmh W 13.1 mph21.1 kmh 29.99 in1015.6 mb 0.00 in0.0 mm 0.00 in0.0 mm 0.00 in0.0 mm
02:06 PM 74.5°F23.6°C 11.6°F-11.3°C 9% 3.7 mph W6.0 kmh W 13.1 mph21.1 kmh 29.99 in1015.6 mb 0.00 in0.0 mm 0.00 in0.0 mm 0.00 in0.0 mm
02:11 PM 75.0°F23.9°C 12.0°F-11.1°C 9% 3.9 mph WSW6.3 kmh WSW 10.7 mph17.2 kmh 29.99 in1015.6 mb 0.00 in0.0 mm 0.00 in0.0 mm 0.00 in0.0 mm
02:17 PM 75.3°F24.1°C 12.2°F-11.0°C 9% 3.9 mph SW6.3 kmh SW 13.1 mph21.1 kmh 29.99 in1015.6 mb 0.00 in0.0 mm 0.00 in0.0 mm 0.00 in0.0 mm
02:22 PM 74.1°F23.4°C 11.3°F-11.5°C 9% 0.9 mph NW1.4 kmh NW 13.1 mph21.1 kmh 29.98 in1015.2 mb 0.00 in0.0 mm 0.00 in0.0 mm 0.00 in0.0 mm
02:27 PM 75.6°F24.2°C 12.5°F-10.8°C 9% 3.4 mph WSW5.5 kmh WSW 4.9 mph7.9 kmh 29.98 in1015.2 mb 0.00 in0.0 mm 0.00 in0.0 mm 0.00 in0.0 mm
02:32 PM 76.0°F24.4°C 12.7°F-10.7°C 9% 4.8 mph SW7.7 kmh SW 11.6 mph18.7 kmh 29.99 in1015.6 mb 0.00 in0.0 mm 0.00 in0.0 mm 0.00 in0.0 mm
02:38 PM 76.5°F24.7°C 13.1°F-10.5°C 9% 3.4 mph SW5.5 kmh SW 11.6 mph18.7 kmh 29.98 in1015.2 mb 0.00 in0.0 mm 0.00 in0.0 mm 0.00 in0.0 mm
02:43 PM 76.2°F24.6°C 12.9°F-10.6°C 9% 2.3 mph SW3.7 kmh SW 3.5 mph5.6 kmh 29.98 in1015.2 mb 0.00 in0.0 mm 0.00 in0.0 mm 0.00 in0.0 mm
02:48 PM 77.2°F25.1°C 13.6°F-10.2°C 9% 3.4 mph WSW5.5 kmh WSW 9.8 mph15.8 kmh 29.98 in1015.2 mb 0.00 in0.0 mm 0.00 in0.0 mm 0.00 in0.0 mm
02:53 PM 76.6°F24.8°C 13.2°F-10.4°C 9% 3.0 mph WSW4.8 kmh WSW 9.8 mph15.8 kmh 29.99 in1015.6 mb 0.00 in0.0 mm 0.00 in0.0 mm 0.00 in0.0 mm
02:59 PM 75.6°F24.2°C 12.4°F-10.9°C 9% 5.3 mph WSW8.5 kmh WSW 11.4 mph18.3 kmh 29.98 in1015.2 mb 0.00 in0.0 mm 0.00 in0.0 mm 0.00 in0.0 mm
03:04 PM 77.2°F25.1°C 13.6°F-10.2°C 9% 4.1 mph SSW6.6 kmh SSW 11.4 mph18.3 kmh 29.98 in1015.2 mb 0.00 in0.0 mm 0.00 in0.0 mm 0.00 in0.0 mm
03:09 PM 77.1°F25.1°C 13.5°F-10.3°C 9% 5.3 mph WSW8.5 kmh WSW 10.0 mph16.1 kmh 29.98 in1015.2 mb 0.00 in0.0 mm 0.00 in0.0 mm 0.00 in0.0 mm
03:14 PM 76.7°F24.8°C 10.6°F-11.9°C 8% 3.3 mph WSW5.3 kmh WSW 10.5 mph16.9 kmh 29.98 in1015.2 mb 0.00 in0.0 mm 0.00 in0.0 mm 0.00 in0.0 mm
03:20 PM 76.0°F24.4°C 12.7°F-10.7°C 9% 6.2 mph WSW10.0 kmh WSW 14.5 mph23.3 kmh 29.98 in1015.2 mb 0.00 in0.0 mm 0.00 in0.0 mm 0.00 in0.0 mm
03:25 PM 76.7°F24.8°C 13.2°F-10.4°C 9% 4.5 mph WSW7.2 kmh WSW 25.0 mph40.2 kmh 29.98 in1015.2 mb 0.00 in0.0 mm 0.00 in0.0 mm 0.00 in0.0 mm
03:30 PM 76.2°F24.6°C 12.9°F-10.6°C 9% 4.8 mph SW7.7 kmh SW 25.0 mph40.2 kmh 29.98 in1015.2 mb 0.00 in0.0 mm 0.00 in0.0 mm 0.00 in0.0 mm
03:35 PM 77.8°F25.4°C 14.1°F-9.9°C 9% 3.7 mph SSW6.0 kmh SSW 5.5 mph8.9 kmh 29.98 in1015.2 mb 0.00 in0.0 mm 0.00 in0.0 mm 0.00 in0.0 mm
03:41 PM 76.6°F24.8°C 15.7°F-9.1°C 10% 4.5 mph WSW7.2 kmh WSW 10.9 mph17.5 kmh 29.98 in1015.2 mb 0.00 in0.0 mm 0.00 in0.0 mm 0.00 in0.0 mm
03:46 PM 76.4°F24.7°C 13.1°F-10.5°C 9% 4.5 mph WSW7.2 kmh WSW 10.9 mph17.5 kmh 29.98 in1015.2 mb 0.00 in0.0 mm 0.00 in0.0 mm 0.00 in0.0 mm
03:51 PM 76.7°F24.8°C 15.7°F-9.1°C 10% 5.1 mph SW8.2 kmh SW 16.3 mph26.2 kmh 29.98 in1015.2 mb 0.00 in0.0 mm 0.00 in0.0 mm 0.00 in0.0 mm
03:56 PM 76.8°F24.9°C 15.8°F-9.0°C 10% 4.2 mph WSW6.8 kmh WSW 16.3 mph26.2 kmh 29.98 in1015.2 mb 0.00 in0.0 mm 0.00 in0.0 mm 0.00 in0.0 mm
04:02 PM 77.5°F25.3°C 16.3°F-8.7°C 10% 4.7 mph SW7.6 kmh SW 17.4 mph28.0 kmh 29.97 in1014.9 mb 0.00 in0.0 mm 0.00 in0.0 mm 0.00 in0.0 mm
04:07 PM 77.6°F25.3°C 18.7°F-7.4°C 11% 3.2 mph SSW5.1 kmh SSW 18.7 mph30.1 kmh 29.98 in1015.2 mb 0.00 in0.0 mm 0.00 in0.0 mm 0.00 in0.0 mm
04:12 PM 78.1°F25.6°C 16.8°F-8.4°C 10% 4.8 mph SW7.7 kmh SW 18.7 mph30.1 kmh 29.98 in1015.2 mb 0.00 in0.0 mm 0.00 in0.0 mm 0.00 in0.0 mm
04:17 PM 77.9°F25.5°C 18.9°F-7.3°C 11% 4.9 mph WSW7.9 kmh WSW 15.4 mph24.8 kmh 29.98 in1015.2 mb 0.00 in0.0 mm 0.00 in0.0 mm 0.00 in0.0 mm
04:23 PM 77.8°F25.4°C 18.9°F-7.3°C 11% 4.0 mph WSW6.4 kmh WSW 14.7 mph23.7 kmh 29.98 in1015.2 mb 0.00 in0.0 mm 0.00 in0.0 mm 0.00 in0.0 mm
04:28 PM 77.6°F25.3°C 16.4°F-8.7°C 10% 3.9 mph W6.3 kmh W 4.4 mph7.1 kmh 29.98 in1015.2 mb 0.00 in0.0 mm 0.00 in0.0 mm 0.00 in0.0 mm
04:33 PM 77.0°F25.0°C 18.2°F-7.7°C 11% 4.4 mph SW7.1 kmh SW 14.5 mph23.3 kmh 29.97 in1014.9 mb 0.00 in0.0 mm 0.00 in0.0 mm 0.00 in0.0 mm
04:39 PM 77.8°F25.4°C 18.8°F-7.3°C 11% 4.1 mph W6.6 kmh W 16.7 mph26.9 kmh 29.98 in1015.2 mb 0.00 in0.0 mm 0.00 in0.0 mm 0.00 in0.0 mm
04:44 PM 77.7°F25.4°C 18.7°F-7.4°C 11% 3.0 mph WSW4.8 kmh WSW 16.7 mph26.9 kmh 29.97 in1014.9 mb 0.00 in0.0 mm 0.00 in0.0 mm 0.00 in0.0 mm
04:49 PM 78.1°F25.6°C 19.1°F-7.2°C 11% 4.8 mph S7.7 kmh S 9.8 mph15.8 kmh 29.97 in1014.9 mb 0.00 in0.0 mm 0.00 in0.0 mm 0.00 in0.0 mm
04:54 PM 77.8°F25.4°C 18.8°F-7.3°C 11% 4.0 mph WSW6.4 kmh WSW 9.3 mph15.0 kmh 29.97 in1014.9 mb 0.00 in0.0 mm 0.00 in0.0 mm 0.00 in0.0 mm
05:00 PM 77.7°F25.4°C 20.1°F-6.6°C 12% 3.6 mph WSW5.8 kmh WSW 9.3 mph15.0 kmh 29.97 in1014.9 mb 0.00 in0.0 mm 0.00 in0.0 mm 0.00 in0.0 mm
05:05 PM 77.4°F25.2°C 18.1°F-7.7°C 11% 4.9 mph WSW7.9 kmh WSW 11.8 mph19.0 kmh 29.97 in1014.9 mb 0.00 in0.0 mm 0.00 in0.0 mm 0.00 in0.0 mm
05:10 PM 76.8°F24.9°C 17.8°F-7.9°C 11% 4.0 mph WSW6.4 kmh WSW 11.8 mph19.0 kmh 29.97 in1014.9 mb 0.00 in0.0 mm 0.00 in0.0 mm 0.00 in0.0 mm
05:15 PM 76.6°F24.8°C 17.6°F-8.0°C 11% 4.2 mph W6.8 kmh W 8.7 mph14.0 kmh 29.97 in1014.9 mb 0.00 in0.0 mm 0.00 in0.0 mm 0.00 in0.0 mm
05:21 PM 76.1°F24.5°C 17.2°F-8.2°C 12% 2.4 mph W3.9 kmh W 14.7 mph23.7 kmh 29.97 in1014.9 mb 0.00 in0.0 mm 0.00 in0.0 mm 0.00 in0.0 mm
05:26 PM 76.8°F24.9°C 19.4°F-7.0°C 12% 2.4 mph WSW3.9 kmh WSW 14.7 mph23.7 kmh 29.97 in1014.9 mb 0.00 in0.0 mm 0.00 in0.0 mm 0.00 in0.0 mm
05:31 PM 76.6°F24.8°C 19.2°F-7.1°C 12% 1.8 mph SW2.9 kmh SW 10.9 mph17.5 kmh 29.98 in1015.2 mb 0.00 in0.0 mm 0.00 in0.0 mm 0.00 in0.0 mm
05:36 PM 77.2°F25.1°C 19.8°F-6.8°C 12% 3.8 mph WNW6.1 kmh WNW 10.9 mph17.5 kmh 29.97 in1014.9 mb 0.00 in0.0 mm 0.00 in0.0 mm 0.00 in0.0 mm
05:42 PM 76.3°F24.6°C 19.0°F-7.2°C 12% 3.7 mph WSW6.0 kmh WSW 14.3 mph23.0 kmh 29.97 in1014.9 mb 0.00 in0.0 mm 0.00 in0.0 mm 0.00 in0.0 mm
05:47 PM 74.8°F23.8°C 17.8°F-7.9°C 12% 3.1 mph WSW5.0 kmh WSW 14.3 mph23.0 kmh 29.97 in1014.9 mb 0.00 in0.0 mm 0.00 in0.0 mm 0.00 in0.0 mm
05:52 PM 74.5°F23.6°C 20.8°F-6.2°C 14% 3.4 mph W5.5 kmh W 5.3 mph8.5 kmh 29.98 in1015.2 mb 0.00 in0.0 mm 0.00 in0.0 mm 0.00 in0.0 mm
05:57 PM 75.0°F23.9°C 18.0°F-7.8°C 12% 2.6 mph W4.2 kmh W 9.1 mph14.6 kmh 29.98 in1015.2 mb 0.00 in0.0 mm 0.00 in0.0 mm 0.00 in0.0 mm
06:03 PM 74.8°F23.8°C 17.8°F-7.9°C 12% 3.8 mph W6.1 kmh W 19.0 mph30.6 kmh 29.98 in1015.2 mb 0.00 in0.0 mm 0.00 in0.0 mm 0.00 in0.0 mm
06:08 PM 74.1°F23.4°C 20.7°F-6.3°C 14% 4.3 mph WSW6.9 kmh WSW 24.1 mph38.8 kmh 29.98 in1015.2 mb 0.00 in0.0 mm 0.00 in0.0 mm 0.00 in0.0 mm
06:13 PM 73.9°F23.3°C 20.5°F-6.4°C 14% 3.8 mph WSW6.1 kmh WSW 24.1 mph38.8 kmh 29.98 in1015.2 mb 0.00 in0.0 mm 0.00 in0.0 mm 0.00 in0.0 mm
06:18 PM 73.9°F23.3°C 20.5°F-6.4°C 14% 2.8 mph WSW4.5 kmh WSW 17.2 mph27.7 kmh 29.97 in1014.9 mb 0.00 in0.0 mm 0.00 in0.0 mm 0.00 in0.0 mm
06:24 PM 73.6°F23.1°C 18.7°F-7.4°C 13% 4.4 mph WSW7.1 kmh WSW 21.4 mph34.4 kmh 29.97 in1014.9 mb 0.00 in0.0 mm 0.00 in0.0 mm 0.00 in0.0 mm
06:29 PM 73.2°F22.9°C 19.9°F-6.7°C 15% 2.4 mph W3.9 kmh W 21.4 mph34.4 kmh 29.98 in1015.2 mb 0.00 in0.0 mm 0.00 in0.0 mm 0.00 in0.0 mm
06:34 PM 73.0°F22.8°C 21.4°F-5.9°C 15% 2.6 mph W4.2 kmh W 18.1 mph29.1 kmh 29.98 in1015.2 mb 0.00 in0.0 mm 0.00 in0.0 mm 0.00 in0.0 mm
06:39 PM 72.7°F22.6°C 21.2°F-6.0°C 15% 3.0 mph WSW4.8 kmh WSW 3.1 mph5.0 kmh 29.98 in1015.2 mb 0.00 in0.0 mm 0.00 in0.0 mm 0.00 in0.0 mm
06:45 PM 72.3°F22.4°C 22.5°F-5.3°C 16% 2.6 mph WSW4.2 kmh WSW 3.1 mph5.0 kmh 29.98 in1015.2 mb 0.00 in0.0 mm 0.00 in0.0 mm 0.00 in0.0 mm
06:50 PM 71.8°F22.1°C 21.9°F-5.6°C 16% 2.5 mph WSW4.0 kmh WSW 2.6 mph4.2 kmh 29.98 in1015.2 mb 0.00 in0.0 mm 0.00 in0.0 mm 0.00 in0.0 mm
06:55 PM 70.2°F21.2°C 20.7°F-6.3°C 16% 2.0 mph W3.2 kmh W 3.8 mph6.1 kmh 29.98 in1015.2 mb 0.00 in0.0 mm 0.00 in0.0 mm 0.00 in0.0 mm
07:00 PM 69.4°F20.8°C 21.7°F-5.7°C 17% 0.6 mph W1.0 kmh W 3.8 mph6.1 kmh 29.98 in1015.2 mb 0.00 in0.0 mm 0.00 in0.0 mm 0.00 in0.0 mm
07:06 PM 68.7°F20.4°C 21.2°F-6.0°C 17% 4.5 mph W7.2 kmh W 4.6 mph7.4 kmh 29.99 in1015.6 mb 0.00 in0.0 mm 0.00 in0.0 mm 0.00 in0.0 mm
07:11 PM 68.5°F20.3°C 21.0°F-6.1°C 17% 3.2 mph WSW5.1 kmh WSW 5.1 mph8.2 kmh 29.98 in1015.2 mb 0.00 in0.0 mm 0.00 in0.0 mm 0.00 in0.0 mm
07:16 PM 68.4°F20.2°C 20.8°F-6.2°C 18% 2.0 mph WSW3.2 kmh WSW 5.1 mph8.2 kmh 29.99 in1015.6 mb 0.00 in0.0 mm 0.00 in0.0 mm 0.00 in0.0 mm
07:21 PM 67.8°F19.9°C 22.1°F-5.5°C 18% 5.3 mph WSW8.5 kmh WSW 5.3 mph8.5 kmh 29.99 in1015.6 mb 0.00 in0.0 mm 0.00 in0.0 mm 0.00 in0.0 mm
07:27 PM 67.3°F19.6°C 21.6°F-5.8°C 18% 1.3 mph W2.1 kmh W 5.3 mph8.5 kmh 29.99 in1015.6 mb 0.00 in0.0 mm 0.00 in0.0 mm 0.00 in0.0 mm
07:32 PM 67.1°F19.5°C 23.0°F-5.0°C 19% 2.9 mph WSW4.7 kmh WSW 3.3 mph5.3 kmh 29.99 in1015.6 mb 0.00 in0.0 mm 0.00 in0.0 mm 0.00 in0.0 mm
07:37 PM 66.9°F19.4°C 22.8°F-5.1°C 19% 2.3 mph W3.7 kmh W 3.3 mph5.3 kmh 29.99 in1015.6 mb 0.00 in0.0 mm 0.00 in0.0 mm 0.00 in0.0 mm
07:42 PM 66.4°F19.1°C 22.5°F-5.3°C 19% 4.0 mph WNW6.4 kmh WNW 4.0 mph6.4 kmh 29.99 in1015.6 mb 0.00 in0.0 mm 0.00 in0.0 mm 0.00 in0.0 mm
07:48 PM 66.0°F18.9°C 23.7°F-4.6°C 20% 3.8 mph NW6.1 kmh NW 9.6 mph15.4 kmh 30.00 in1015.9 mb 0.00 in0.0 mm 0.00 in0.0 mm 0.00 in0.0 mm
07:53 PM 65.5°F18.6°C 23.2°F-4.9°C 20% 4.3 mph NW6.9 kmh NW 10.9 mph17.5 kmh 30.00 in1015.9 mb 0.00 in0.0 mm 0.00 in0.0 mm 0.00 in0.0 mm
07:58 PM 64.9°F18.3°C 22.8°F-5.1°C 20% 2.1 mph WNW3.4 kmh WNW 25.0 mph40.2 kmh 30.00 in1015.9 mb 0.00 in0.0 mm 0.00 in0.0 mm 0.00 in0.0 mm
08:03 PM 64.6°F18.1°C 24.4°F-4.2°C 22% 2.9 mph WNW4.7 kmh WNW 25.0 mph40.2 kmh 30.00 in1015.9 mb 0.00 in0.0 mm 0.00 in0.0 mm 0.00 in0.0 mm
08:09 PM 64.0°F17.8°C 23.0°F-5.0°C 21% 2.4 mph W3.9 kmh W 3.1 mph5.0 kmh 30.00 in1015.9 mb 0.00 in0.0 mm 0.00 in0.0 mm 0.00 in0.0 mm
08:14 PM 63.7°F17.6°C 23.7°F-4.6°C 23% 0.9 mph W1.4 kmh W 2.4 mph3.9 kmh 30.00 in1015.9 mb 0.00 in0.0 mm 0.00 in0.0 mm 0.00 in0.0 mm
08:19 PM 63.5°F17.5°C 24.6°F-4.1°C 23% 3.2 mph W5.1 kmh W 3.8 mph6.1 kmh 30.01 in1016.3 mb 0.00 in0.0 mm 0.00 in0.0 mm 0.00 in0.0 mm
08:24 PM 64.0°F17.8°C 25.0°F-3.9°C 23% 3.5 mph WNW5.6 kmh WNW 3.8 mph6.1 kmh 30.01 in1016.3 mb 0.00 in0.0 mm 0.00 in0.0 mm 0.00 in0.0 mm
08:30 PM 63.7°F17.6°C 24.8°F-4.0°C 23% 1.1 mph WNW1.8 kmh WNW 3.8 mph6.1 kmh 30.01 in1016.3 mb 0.00 in0.0 mm 0.00 in0.0 mm 0.00 in0.0 mm
08:35 PM 63.3°F17.4°C 24.4°F-4.2°C 23% 0.6 mph W1.0 kmh W 3.1 mph5.0 kmh 30.01 in1016.3 mb 0.00 in0.0 mm 0.00 in0.0 mm 0.00 in0.0 mm
08:41 PM 62.6°F17.0°C 23.9°F-4.5°C 23% 1.3 mph NW2.1 kmh NW 2.6 mph4.2 kmh 30.01 in1016.3 mb 0.00 in0.0 mm 0.00 in0.0 mm 0.00 in0.0 mm
08:47 PM 62.4°F16.9°C 24.6°F-4.1°C 24% 2.3 mph W3.7 kmh W 3.5 mph5.6 kmh 30.02 in1016.6 mb 0.00 in0.0 mm 0.00 in0.0 mm 0.00 in0.0 mm
08:52 PM 62.2°F16.8°C 24.4°F-4.2°C 24% 1.5 mph NW2.4 kmh NW 3.5 mph5.6 kmh 30.02 in1016.6 mb 0.00 in0.0 mm 0.00 in0.0 mm 0.00 in0.0 mm
08:57 PM 61.7°F16.5°C 24.1°F-4.4°C 24% 3.1 mph WNW5.0 kmh WNW 3.1 mph5.0 kmh 30.02 in1016.6 mb 0.00 in0.0 mm 0.00 in0.0 mm 0.00 in0.0 mm
09:02 PM 61.7°F16.5°C 24.1°F-4.4°C 24% 6.0 mph NW9.7 kmh NW 8.7 mph14.0 kmh 30.02 in1016.6 mb 0.00 in0.0 mm 0.00 in0.0 mm 0.00 in0.0 mm
09:08 PM 61.5°F16.4°C 23.9°F-4.5°C 25% 2.0 mph WNW3.2 kmh WNW 21.6 mph34.8 kmh 30.02 in1016.6 mb 0.00 in0.0 mm 0.00 in0.0 mm 0.00 in0.0 mm
09:13 PM 61.3°F16.3°C 24.8°F-4.0°C 25% 2.9 mph WNW4.7 kmh WNW 21.6 mph34.8 kmh 30.02 in1016.6 mb 0.00 in0.0 mm 0.00 in0.0 mm 0.00 in0.0 mm
09:18 PM 61.3°F16.3°C 24.8°F-4.0°C 25% 1.0 mph W1.6 kmh W 10.0 mph16.1 kmh 30.03 in1016.9 mb 0.00 in0.0 mm 0.00 in0.0 mm 0.00 in0.0 mm
09:23 PM 61.3°F16.3°C 24.8°F-4.0°C 25% 2.4 mph W3.9 kmh W 17.6 mph28.3 kmh 30.03 in1016.9 mb 0.00 in0.0 mm 0.00 in0.0 mm 0.00 in0.0 mm
09:28 PM 61.5°F16.4°C 24.8°F-4.0°C 25% 2.7 mph WSW4.3 kmh WSW 17.6 mph28.3 kmh 30.03 in1016.9 mb 0.00 in0.0 mm 0.00 in0.0 mm 0.00 in0.0 mm
09:34 PM 61.5°F16.4°C 24.8°F-4.0°C 25% 1.8 mph W2.9 kmh W 3.3 mph5.3 kmh 30.03 in1016.9 mb 0.00 in0.0 mm 0.00 in0.0 mm 0.00 in0.0 mm
09:39 PM 61.3°F16.3°C 24.8°F-4.0°C 25% 2.9 mph WNW4.7 kmh WNW 2.9 mph4.7 kmh 30.03 in1016.9 mb 0.00 in0.0 mm 0.00 in0.0 mm 0.00 in0.0 mm
09:44 PM 61.3°F16.3°C 24.8°F-4.0°C 25% 3.3 mph W5.3 kmh W 3.5 mph5.6 kmh 30.03 in1016.9 mb 0.00 in0.0 mm 0.00 in0.0 mm 0.00 in0.0 mm
09:49 PM 61.0°F16.1°C 24.4°F-4.2°C 25% 2.4 mph WSW3.9 kmh WSW 3.5 mph5.6 kmh 30.03 in1016.9 mb 0.00 in0.0 mm 0.00 in0.0 mm 0.00 in0.0 mm
09:55 PM 60.4°F15.8°C 25.0°F-3.9°C 26% 1.5 mph W2.4 kmh W 3.5 mph5.6 kmh 30.04 in1017.3 mb 0.00 in0.0 mm 0.00 in0.0 mm 0.00 in0.0 mm
10:00 PM 59.5°F15.3°C 25.2°F-3.8°C 27% Calm Calm 1.5 mph2.4 kmh 30.03 in1016.9 mb 0.00 in0.0 mm 0.00 in0.0 mm 0.00 in0.0 mm
10:06 PM 58.8°F14.9°C 24.4°F-4.2°C 27% Calm Calm -- 30.03 in1016.9 mb 0.00 in0.0 mm 0.00 in0.0 mm 0.00 in0.0 mm
10:11 PM 58.3°F14.6°C 25.0°F-3.9°C 28% Calm Calm -- 30.04 in1017.3 mb 0.00 in0.0 mm 0.00 in0.0 mm 0.00 in0.0 mm
10:16 PM 57.7°F14.3°C 24.6°F-4.1°C 28% Calm Calm -- 30.04 in1017.3 mb 0.00 in0.0 mm 0.00 in0.0 mm 0.00 in0.0 mm
10:21 PM 57.0°F13.9°C 23.9°F-4.5°C 28% Calm Calm -- 30.04 in1017.3 mb 0.00 in0.0 mm 0.00 in0.0 mm 0.00 in0.0 mm
10:27 PM 55.9°F13.3°C 23.9°F-4.5°C 29% Calm Calm -- 30.04 in1017.3 mb 0.00 in0.0 mm 0.00 in0.0 mm 0.00 in0.0 mm
10:32 PM 55.6°F13.1°C 23.5°F-4.7°C 29% Calm Calm -- 30.04 in1017.3 mb 0.00 in0.0 mm 0.00 in0.0 mm 0.00 in0.0 mm
10:37 PM 55.0°F12.8°C 24.1°F-4.4°C 30% Calm Calm -- 30.04 in1017.3 mb 0.00 in0.0 mm 0.00 in0.0 mm 0.00 in0.0 mm
10:42 PM 55.2°F12.9°C 24.3°F-4.3°C 30% Calm Calm -- 30.04 in1017.3 mb 0.00 in0.0 mm 0.00 in0.0 mm 0.00 in0.0 mm
10:48 PM 55.0°F12.8°C 24.1°F-4.4°C 30% Calm Calm -- 30.04 in1017.3 mb 0.00 in0.0 mm 0.00 in0.0 mm 0.00 in0.0 mm
10:53 PM 54.7°F12.6°C 23.7°F-4.6°C 30% Calm Calm -- 30.04 in1017.3 mb 0.00 in0.0 mm 0.00 in0.0 mm 0.00 in0.0 mm
10:58 PM 54.5°F12.5°C 23.7°F-4.6°C 30% Calm Calm -- 30.04 in1017.3 mb 0.00 in0.0 mm 0.00 in0.0 mm 0.00 in0.0 mm
11:03 PM 54.7°F12.6°C 24.4°F-4.2°C 31% 1.5 mph WSW2.4 kmh WSW 1.5 mph2.4 kmh 30.04 in1017.3 mb 0.00 in0.0 mm 0.00 in0.0 mm 0.00 in0.0 mm
11:09 PM 55.0°F12.8°C 24.8°F-4.0°C 31% Calm Calm 1.5 mph2.4 kmh 30.04 in1017.3 mb 0.00 in0.0 mm 0.00 in0.0 mm 0.00 in0.0 mm
11:14 PM 55.0°F12.8°C 24.8°F-4.0°C 31% 1.3 mph W2.1 kmh W 1.5 mph2.4 kmh 30.04 in1017.3 mb 0.00 in0.0 mm 0.00 in0.0 mm 0.00 in0.0 mm
11:19 PM 55.0°F12.8°C 24.8°F-4.0°C 32% Calm Calm 1.3 mph2.1 kmh 30.04 in1017.3 mb 0.00 in0.0 mm 0.00 in0.0 mm 0.00 in0.0 mm
11:24 PM 55.2°F12.9°C 25.0°F-3.9°C 31% Calm Calm 1.3 mph2.1 kmh 30.04 in1017.3 mb 0.00 in0.0 mm 0.00 in0.0 mm 0.00 in0.0 mm
11:30 PM 55.6°F13.1°C 25.2°F-3.8°C 31% 0.2 mph WSW0.3 kmh WSW 1.1 mph1.8 kmh 30.03 in1016.9 mb 0.00 in0.0 mm 0.00 in0.0 mm 0.00 in0.0 mm
11:35 PM 55.8°F13.2°C 25.3°F-3.7°C 31% 1.3 mph WSW2.1 kmh WSW 1.3 mph2.1 kmh 30.03 in1016.9 mb 0.00 in0.0 mm 0.00 in0.0 mm 0.00 in0.0 mm
11:40 PM 56.1°F13.4°C 25.7°F-3.5°C 31% 1.5 mph WSW2.4 kmh WSW 1.5 mph2.4 kmh 30.03 in1016.9 mb 0.00 in0.0 mm 0.00 in0.0 mm 0.00 in0.0 mm
11:45 PM 56.1°F13.4°C 25.7°F-3.5°C 31% Calm Calm 1.5 mph2.4 kmh 30.04 in1017.3 mb 0.00 in0.0 mm 0.00 in0.0 mm 0.00 in0.0 mm
11:51 PM 56.1°F13.4°C 25.7°F-3.5°C 31% 0.6 mph WSW1.0 kmh WSW 0.6 mph1.0 kmh 30.03 in1016.9 mb 0.00 in0.0 mm 0.00 in0.0 mm 0.00 in0.0 mm
11:56 PM 56.1°F13.4°C 25.7°F-3.5°C 32% Calm Calm 0.6 mph1.0 kmh 30.03 in1016.9 mb 0.00 in0.0 mm 0.00 in0.0 mm 0.00 in0.0 mm